createdAt,value
2023-10-23T00:03:54.446Z,9.80
2023-10-23T00:06:21.297Z,9.58
2023-10-23T00:08:48.018Z,9.45
2023-10-23T00:11:28.636Z,9.24
2023-10-23T00:16:30.350Z,9.23
2023-10-23T00:18:57.233Z,9.31
2023-10-23T00:21:24.318Z,9.37
2023-10-23T00:23:51.550Z,9.45
2023-10-23T00:26:18.773Z,9.46
2023-10-23T00:28:45.464Z,9.50
2023-10-23T00:31:12.190Z,9.54
2023-10-23T00:33:39.030Z,9.40
2023-10-23T00:48:51.949Z,9.31
2023-10-23T00:51:20.913Z,9.28
2023-10-23T00:53:48.442Z,9.28
2023-10-23T00:56:15.455Z,9.31
2023-10-23T00:58:43.969Z,9.31
2023-10-23T01:03:57.627Z,9.22
2023-10-23T01:06:24.395Z,9.28
2023-10-23T01:08:51.161Z,9.16
2023-10-23T01:11:17.937Z,9.09
2023-10-23T01:13:44.703Z,8.98
2023-10-23T01:16:11.690Z,9.04
2023-10-23T01:18:38.592Z,9.03
2023-10-23T01:21:05.368Z,8.92
2023-10-23T01:23:37.650Z,9.01
2023-10-23T01:26:04.811Z,9.04
2023-10-23T01:28:31.647Z,9.17
2023-10-23T01:30:58.480Z,9.16
2023-10-23T01:33:25.713Z,9.08
2023-10-23T01:35:52.543Z,9.06
2023-10-23T01:38:19.831Z,9.02
2023-10-23T01:40:46.589Z,9.08
2023-10-23T01:43:13.449Z,9.03
2023-10-23T01:48:28.123Z,9.02
2023-10-23T01:50:54.916Z,9.01
2023-10-23T01:53:21.665Z,8.97
2023-10-23T01:55:48.450Z,8.78
2023-10-23T02:21:05.801Z,8.88
2023-10-23T02:23:48.923Z,8.82
2023-10-23T02:26:20.342Z,8.85
2023-10-23T02:28:47.091Z,8.72
2023-10-23T02:31:14.086Z,8.76
2023-10-23T02:36:16.573Z,8.79
2023-10-23T02:38:44.091Z,8.82
2023-10-23T02:41:10.819Z,8.78
2023-10-23T02:43:37.596Z,8.68
2023-10-23T02:46:05.931Z,8.72
2023-10-23T02:48:32.819Z,8.68
2023-10-23T02:50:59.988Z,8.65
2023-10-23T02:53:26.766Z,8.62
2023-10-23T02:55:53.484Z,8.52
2023-10-23T02:58:20.368Z,8.45
2023-10-23T03:00:47.140Z,8.44
2023-10-23T03:06:00.683Z,8.18
2023-10-23T03:08:27.392Z,8.13
2023-10-23T03:10:54.087Z,8.18
2023-10-23T03:13:20.792Z,8.11
2023-10-23T03:15:47.764Z,8.25
2023-10-23T03:18:14.524Z,8.11
2023-10-23T03:20:42.120Z,7.88
2023-10-23T03:23:09.864Z,7.85
2023-10-23T03:25:36.531Z,7.95
2023-10-23T03:28:03.251Z,7.84
2023-10-23T03:33:01.314Z,7.85
2023-10-23T03:40:36.631Z,7.81
2023-10-23T03:43:03.400Z,7.94
2023-10-23T03:48:04.519Z,7.96
2023-10-23T03:50:31.898Z,8.01
2023-10-23T03:52:59.287Z,8.11
2023-10-23T03:55:26.521Z,8.06
2023-10-23T03:57:53.426Z,7.97
2023-10-23T04:00:20.336Z,7.88
2023-10-23T04:02:47.471Z,7.75
2023-10-23T04:05:14.502Z,7.72
2023-10-23T04:07:41.204Z,7.66
2023-10-23T04:10:09.625Z,7.77
2023-10-23T04:15:14.618Z,7.71
2023-10-23T04:17:41.410Z,7.88
2023-10-23T04:20:09.127Z,7.82
2023-10-23T04:22:35.925Z,7.69
2023-10-23T04:25:02.691Z,7.75
2023-10-23T04:27:29.563Z,7.90
2023-10-23T04:29:58.687Z,7.89
2023-10-23T04:32:25.381Z,7.77
2023-10-23T04:34:52.064Z,7.71
2023-10-23T04:39:56.839Z,7.71
2023-10-23T04:42:23.636Z,7.69
2023-10-23T04:44:50.437Z,7.68
2023-10-23T04:47:17.204Z,7.68
2023-10-23T04:49:43.946Z,7.57
2023-10-23T04:52:10.800Z,7.60
2023-10-23T04:54:37.641Z,7.65
2023-10-23T04:57:04.603Z,7.81
2023-10-23T04:59:31.346Z,7.64
2023-10-23T05:01:58.100Z,7.63
2023-10-23T05:04:24.941Z,7.66
2023-10-23T05:06:51.866Z,7.49
2023-10-23T05:09:18.979Z,7.53
2023-10-23T05:11:45.701Z,7.63
2023-10-23T05:16:44.722Z,7.38
2023-10-23T05:19:11.449Z,7.33
2023-10-23T05:21:39.009Z,7.49
2023-10-23T05:24:06.092Z,7.48
2023-10-23T05:26:32.826Z,7.44
2023-10-23T05:28:59.527Z,7.52
2023-10-23T05:31:26.332Z,7.52
2023-10-23T05:33:53.447Z,7.37
2023-10-23T05:36:20.288Z,7.55
2023-10-23T05:38:47.038Z,7.63
2023-10-23T05:41:15.712Z,7.59
2023-10-23T05:43:42.454Z,7.57
2023-10-23T05:46:09.268Z,7.49
2023-10-23T05:48:38.022Z,7.43
2023-10-23T05:51:06.943Z,7.55
2023-10-23T05:53:34.572Z,7.45
2023-10-23T05:56:05.696Z,7.50
2023-10-23T05:58:35.501Z,7.43
2023-10-23T06:01:09.970Z,7.27
2023-10-23T06:03:37.519Z,7.31
2023-10-23T06:06:04.959Z,7.22
2023-10-23T06:08:31.973Z,7.22
2023-10-23T06:10:58.748Z,7.28
2023-10-23T06:13:25.504Z,7.28
2023-10-23T06:15:53.285Z,7.19
2023-10-23T06:18:20.347Z,7.10
2023-10-23T06:20:47.072Z,7.05
2023-10-23T06:23:13.835Z,7.04
2023-10-23T06:25:41.221Z,7.05
2023-10-23T06:28:08.302Z,7.03
2023-10-23T06:30:36.563Z,7.14
2023-10-23T06:33:04.214Z,7.13
2023-10-23T06:35:31.412Z,7.20
2023-10-23T06:37:58.166Z,7.32
2023-10-23T06:40:24.917Z,7.35
2023-10-23T06:42:51.639Z,7.31
2023-10-23T06:45:18.485Z,7.29
2023-10-23T06:47:49.437Z,7.24
2023-10-23T06:50:17.343Z,7.33
2023-10-23T06:52:45.007Z,7.45
2023-10-23T06:55:12.053Z,7.47
2023-10-23T06:57:38.791Z,7.63
2023-10-23T07:00:07.964Z,7.73
2023-10-23T07:02:34.873Z,7.84
2023-10-23T07:05:01.786Z,7.91
2023-10-23T07:07:30.745Z,7.89
2023-10-23T07:10:01.768Z,7.85
2023-10-23T07:12:29.072Z,7.81
2023-10-23T07:14:56.041Z,7.68
2023-10-23T07:17:22.826Z,7.72
2023-10-23T07:19:49.573Z,7.80
2023-10-23T07:22:16.287Z,8.00
2023-10-23T07:27:16.728Z,8.23
2023-10-23T07:29:46.346Z,8.25
2023-10-23T07:32:13.369Z,8.23
2023-10-23T07:34:40.068Z,8.25
2023-10-23T07:37:07.022Z,8.29
2023-10-23T07:39:36.158Z,8.26
2023-10-23T07:42:04.222Z,8.35
2023-10-23T07:44:31.042Z,8.56
2023-10-23T07:46:57.831Z,8.57
2023-10-23T07:49:24.988Z,8.31
2023-10-23T07:51:54.407Z,8.42
2023-10-23T07:54:21.835Z,8.51
2023-10-23T07:56:48.729Z,8.60
2023-10-23T07:59:15.565Z,8.63
2023-10-23T08:01:42.377Z,8.66
2023-10-23T08:04:10.256Z,8.79
2023-10-23T08:06:37.417Z,8.82
2023-10-23T08:09:05.153Z,8.73
2023-10-23T08:11:32.016Z,8.84
2023-10-23T08:13:59.878Z,8.84
2023-10-23T08:16:26.939Z,8.95
2023-10-23T08:18:53.908Z,9.00
2023-10-23T08:21:23.047Z,9.05
2023-10-23T08:23:54.505Z,9.13
2023-10-23T08:29:02.680Z,9.18
2023-10-23T08:34:00.498Z,9.40
2023-10-23T08:38:58.595Z,9.49
2023-10-23T08:41:27.212Z,9.54
2023-10-23T08:43:57.384Z,9.51
2023-10-23T08:46:33.772Z,9.67
2023-10-23T08:49:04.330Z,9.62
2023-10-23T08:51:32.586Z,9.63
2023-10-23T08:54:11.089Z,9.57
2023-10-23T08:56:42.744Z,9.80
2023-10-23T08:59:16.995Z,9.88
2023-10-23T09:04:20.811Z,9.98
2023-10-23T09:06:49.069Z,9.94
2023-10-23T09:09:17.076Z,10.04
2023-10-23T09:11:45.583Z,10.07
2023-10-23T09:14:24.919Z,10.12
2023-10-23T09:16:53.165Z,10.20
2023-10-23T09:19:34.110Z,10.14
2023-10-23T09:22:01.372Z,10.26
2023-10-23T09:24:28.272Z,10.24
2023-10-23T09:26:55.043Z,10.34
2023-10-23T09:29:25.665Z,10.41
2023-10-23T09:34:32.593Z,10.56
2023-10-23T09:36:59.449Z,10.52
2023-10-23T09:39:26.194Z,10.59
2023-10-23T09:41:54.334Z,10.64
2023-10-23T09:44:22.580Z,10.68
2023-10-23T09:46:52.213Z,10.78
2023-10-23T09:49:22.120Z,10.92
2023-10-23T09:51:51.495Z,10.91
2023-10-23T09:54:21.529Z,11.04
2023-10-23T09:56:52.543Z,11.05
2023-10-23T09:59:26.584Z,11.05
2023-10-23T10:01:58.510Z,11.07
2023-10-23T10:04:35.355Z,11.26
2023-10-23T10:07:09.087Z,11.22
2023-10-23T10:09:36.173Z,11.24
2023-10-23T10:12:05.039Z,11.27
2023-10-23T10:14:32.962Z,11.26
2023-10-23T10:17:01.201Z,11.23
2023-10-23T10:19:28.624Z,11.18
2023-10-23T10:22:08.166Z,11.24
2023-10-23T10:24:37.024Z,11.28
2023-10-23T10:27:05.122Z,11.36
2023-10-23T10:29:32.785Z,11.38
2023-10-23T10:32:14.111Z,11.48
2023-10-23T10:34:46.944Z,11.45
2023-10-23T10:39:48.028Z,11.50
2023-10-23T10:42:18.793Z,11.57
2023-10-23T10:45:11.674Z,11.62
2023-10-23T10:47:44.790Z,11.65
2023-10-23T10:52:44.926Z,11.68
2023-10-23T10:55:14.029Z,11.69
2023-10-23T10:57:46.185Z,11.83
2023-10-23T11:00:14.178Z,11.85
2023-10-23T11:02:41.725Z,11.97
2023-10-23T11:05:12.502Z,12.01
2023-10-23T11:07:40.113Z,12.09
2023-10-23T11:10:07.879Z,12.20
2023-10-23T11:12:35.014Z,12.21
2023-10-23T11:15:01.861Z,12.25
2023-10-23T11:17:28.712Z,12.25
2023-10-23T11:19:55.603Z,12.30
2023-10-23T11:22:25.603Z,12.42
2023-10-23T11:24:52.896Z,12.43
2023-10-23T11:27:19.679Z,12.41
2023-10-23T11:29:48.378Z,12.50
2023-10-23T11:32:17.105Z,12.44
2023-10-23T11:34:44.831Z,12.41
2023-10-23T11:37:12.942Z,12.42
2023-10-23T11:39:43.763Z,12.42
2023-10-23T11:42:11.996Z,12.37
2023-10-23T11:44:39.078Z,12.46
2023-10-23T11:47:06.542Z,12.48
2023-10-23T11:49:33.624Z,12.53
2023-10-23T11:52:01.498Z,12.59
2023-10-23T11:54:29.462Z,12.71
2023-10-23T11:56:59.525Z,12.72
2023-10-23T11:59:27.565Z,12.81
2023-10-23T12:01:56.528Z,12.85
2023-10-23T12:04:24.463Z,12.89
2023-10-23T12:06:51.393Z,12.90
2023-10-23T12:09:18.314Z,12.94
2023-10-23T12:11:45.082Z,12.97
2023-10-23T12:14:11.887Z,13.08
2023-10-23T12:16:38.937Z,13.11
2023-10-23T12:19:05.819Z,13.13
2023-10-23T12:21:33.453Z,13.11
2023-10-23T12:24:00.275Z,13.15
2023-10-23T12:26:27.326Z,13.11
2023-10-23T12:28:54.134Z,13.11
2023-10-23T12:31:23.945Z,13.12
2023-10-23T12:33:52.065Z,13.08
2023-10-23T12:36:19.160Z,13.02
2023-10-23T12:38:45.913Z,12.91
2023-10-23T12:41:13.168Z,12.94
2023-10-23T12:43:40.207Z,12.87
2023-10-23T12:46:07.196Z,12.87
2023-10-23T12:48:34.032Z,12.89
2023-10-23T12:51:01.278Z,12.92
2023-10-23T12:53:28.147Z,12.94
2023-10-23T12:55:54.960Z,12.90
2023-10-23T12:58:21.766Z,12.88
2023-10-23T13:00:48.566Z,12.85
2023-10-23T13:05:46.526Z,12.95
2023-10-23T13:08:13.297Z,12.92
2023-10-23T13:10:41.614Z,12.93
2023-10-23T13:13:08.413Z,12.93
2023-10-23T13:15:35.392Z,12.98
2023-10-23T13:18:04.007Z,13.00
2023-10-23T13:21:29.850Z,13.01
2023-10-23T13:23:17.578Z,13.05
2023-10-23T13:25:45.721Z,13.11
2023-10-23T13:28:18.906Z,13.15
2023-10-23T13:30:45.729Z,13.19
2023-10-23T13:33:13.046Z,13.20
2023-10-23T13:38:12.982Z,13.21
2023-10-23T13:40:39.752Z,13.12
2023-10-23T13:43:06.528Z,13.06
2023-10-23T13:45:33.242Z,13.11
2023-10-23T13:47:59.958Z,13.21
2023-10-23T13:50:26.750Z,13.28
2023-10-23T13:52:53.495Z,13.26
2023-10-23T13:55:20.959Z,13.31
2023-10-23T13:57:47.740Z,13.33
2023-10-23T14:00:17.226Z,13.33
2023-10-23T14:02:44.379Z,13.39
2023-10-23T14:05:11.380Z,13.38
2023-10-23T14:07:38.274Z,13.47
2023-10-23T14:10:05.627Z,13.50
2023-10-23T14:12:32.381Z,13.55
2023-10-23T14:14:59.069Z,13.55
2023-10-23T14:17:26.419Z,13.58
2023-10-23T14:19:53.246Z,13.52
2023-10-23T14:22:20.029Z,13.63
2023-10-23T14:24:49.295Z,13.65
2023-10-23T14:27:16.349Z,13.64
2023-10-23T14:29:43.202Z,13.65
2023-10-23T14:32:10.213Z,13.67
2023-10-23T14:34:36.943Z,13.72
2023-10-23T14:37:04.270Z,13.74
2023-10-23T14:39:31.145Z,13.80
2023-10-23T14:41:58.116Z,13.76
2023-10-23T14:44:25.292Z,13.80
2023-10-23T14:46:52.949Z,13.83
2023-10-23T14:49:20.465Z,13.82
2023-10-23T14:51:47.292Z,13.80
2023-10-23T14:54:14.046Z,13.85
2023-10-23T14:56:40.748Z,13.88
2023-10-23T14:59:07.499Z,13.89
2023-10-23T15:01:34.601Z,13.89
2023-10-23T15:06:38.838Z,13.84
2023-10-23T15:09:06.802Z,13.87
2023-10-23T15:11:34.057Z,13.89
2023-10-23T15:14:00.754Z,13.82
2023-10-23T15:16:27.514Z,13.82
2023-10-23T15:18:54.644Z,13.81
2023-10-23T15:21:21.716Z,13.81
2023-10-23T15:23:48.413Z,13.75
2023-10-23T15:26:15.142Z,13.68
2023-10-23T15:28:42.228Z,13.70
2023-10-23T15:31:09.212Z,13.64
2023-10-23T15:33:37.230Z,13.61
2023-10-23T15:36:06.378Z,13.66
2023-10-23T15:38:34.376Z,13.50
2023-10-23T15:41:12.188Z,13.51
2023-10-23T15:43:40.486Z,13.57
2023-10-23T15:46:13.040Z,13.58
2023-10-23T15:48:40.814Z,13.60
2023-10-23T15:51:07.786Z,13.62
2023-10-23T15:53:35.026Z,13.63
2023-10-23T15:56:02.026Z,13.66
2023-10-23T15:58:29.795Z,13.68
2023-10-23T16:00:58.089Z,13.63
2023-10-23T16:03:25.232Z,13.56
2023-10-23T16:05:52.422Z,13.50
2023-10-23T16:08:19.282Z,13.51
2023-10-23T16:10:48.726Z,13.52
2023-10-23T16:13:17.045Z,13.49
2023-10-23T16:15:44.517Z,13.53
2023-10-23T16:18:12.347Z,13.46
2023-10-23T16:20:40.109Z,13.40
2023-10-23T16:23:06.956Z,13.38
2023-10-23T16:25:38.506Z,13.34
2023-10-23T16:28:05.761Z,13.31
2023-10-23T16:30:32.611Z,13.37
2023-10-23T16:32:59.444Z,13.34
2023-10-23T16:35:26.504Z,13.20
2023-10-23T16:37:53.614Z,13.24
2023-10-23T16:40:20.399Z,13.56
2023-10-23T16:42:50.671Z,14.05
2023-10-23T16:45:17.493Z,13.77
2023-10-23T16:47:44.286Z,13.64
2023-10-23T16:50:11.419Z,13.44
2023-10-23T16:52:38.556Z,13.38
2023-10-23T16:55:08.764Z,13.33
2023-10-23T16:57:36.121Z,13.29
2023-10-23T17:00:02.887Z,13.23
2023-10-23T17:02:29.847Z,13.18
2023-10-23T17:04:56.982Z,13.13
2023-10-23T17:07:24.765Z,13.05
2023-10-23T17:09:51.496Z,13.02
2023-10-23T17:12:18.332Z,12.96
2023-10-23T17:14:45.123Z,12.96
2023-10-23T17:17:12.262Z,12.88
2023-10-23T17:19:41.868Z,12.87
2023-10-23T17:22:09.713Z,12.85
2023-10-23T17:24:36.765Z,12.74
2023-10-23T17:27:03.997Z,12.69
2023-10-23T17:29:31.710Z,12.68
2023-10-23T17:31:59.318Z,12.69
2023-10-23T17:34:29.718Z,12.69
2023-10-23T17:36:57.252Z,12.66
2023-10-23T17:39:24.098Z,12.63
2023-10-23T17:41:50.780Z,12.63
2023-10-23T17:44:17.437Z,12.73
2023-10-23T17:46:44.240Z,12.92
2023-10-23T17:49:11.291Z,12.79
2023-10-23T17:51:37.970Z,12.79
2023-10-23T17:54:07.210Z,12.75
2023-10-23T17:56:37.135Z,12.72
2023-10-23T17:59:04.911Z,12.66
2023-10-23T18:01:31.959Z,12.67
2023-10-23T18:03:59.905Z,12.66
2023-10-23T18:06:27.351Z,12.66
2023-10-23T18:08:54.569Z,12.61
2023-10-23T18:11:21.591Z,12.68
2023-10-23T18:13:48.375Z,12.64
2023-10-23T18:16:15.305Z,12.66
2023-10-23T18:18:42.227Z,12.67
2023-10-23T18:21:08.945Z,12.68
2023-10-23T18:23:35.768Z,12.72
2023-10-23T18:26:02.642Z,12.69
2023-10-23T18:28:29.730Z,12.74
2023-10-23T18:31:00.995Z,12.82
2023-10-23T18:33:27.967Z,12.84
2023-10-23T18:36:01.485Z,12.77
2023-10-23T18:38:28.707Z,12.83
2023-10-23T18:40:56.219Z,12.76
2023-10-23T18:43:26.077Z,12.77
2023-10-23T18:45:52.909Z,12.78
2023-10-23T18:48:19.858Z,12.75
2023-10-23T18:50:46.715Z,12.80
2023-10-23T18:53:13.479Z,12.85
2023-10-23T18:55:40.310Z,12.88
2023-10-23T18:58:07.045Z,12.89
2023-10-23T19:03:12.035Z,12.90
2023-10-23T19:05:39.448Z,12.88
2023-10-23T19:08:06.707Z,12.86
2023-10-23T19:10:33.462Z,12.84
2023-10-23T19:13:00.304Z,12.79
2023-10-23T19:15:27.033Z,12.71
2023-10-23T19:17:55.212Z,12.73
2023-10-23T19:20:23.888Z,12.83
2023-10-23T19:22:51.030Z,12.83
2023-10-23T19:25:18.497Z,12.78
2023-10-23T19:27:45.634Z,12.81
2023-10-23T19:30:13.645Z,12.79
2023-10-23T19:32:42.173Z,12.78
2023-10-23T19:35:10.773Z,12.75
2023-10-23T19:37:38.856Z,12.78
2023-10-23T19:40:06.285Z,12.70
2023-10-23T19:42:40.551Z,12.71
2023-10-23T19:45:09.236Z,12.72
2023-10-23T19:47:36.919Z,12.68
2023-10-23T19:50:05.045Z,12.65
2023-10-23T19:52:35.719Z,12.63
2023-10-23T19:55:04.365Z,12.64
2023-10-23T19:57:50.059Z,12.68
2023-10-23T20:00:18.213Z,12.73
2023-10-23T20:02:45.034Z,12.69
2023-10-23T20:05:11.805Z,12.64
2023-10-23T20:07:38.702Z,12.72
2023-10-23T20:10:06.637Z,12.64
2023-10-23T20:12:33.501Z,12.64
2023-10-23T20:15:00.275Z,12.63
2023-10-23T20:17:27.099Z,12.63
2023-10-23T20:19:54.316Z,12.61
2023-10-23T20:22:21.119Z,12.59
2023-10-23T20:24:47.789Z,12.49
2023-10-23T20:27:14.935Z,12.53
2023-10-23T20:29:41.904Z,12.63
2023-10-23T20:32:09.053Z,12.56
2023-10-23T20:34:35.873Z,12.82
2023-10-23T20:37:03.127Z,12.75
2023-10-23T20:39:29.993Z,12.81
2023-10-23T20:44:28.939Z,12.79
2023-10-23T20:49:22.477Z,12.66
2023-10-23T20:51:49.357Z,12.68
2023-10-23T20:54:16.064Z,12.60
2023-10-23T20:56:43.086Z,12.50
2023-10-23T20:59:10.188Z,12.63
2023-10-23T21:01:37.353Z,12.67
2023-10-23T21:04:04.719Z,12.62
2023-10-23T21:06:32.284Z,12.60
2023-10-23T21:08:58.970Z,12.54
2023-10-23T21:11:25.770Z,12.59
2023-10-23T21:13:52.486Z,12.61
2023-10-23T21:16:19.385Z,12.61
2023-10-23T21:18:46.219Z,12.69
2023-10-23T21:21:12.924Z,12.62
2023-10-23T21:23:39.627Z,12.54
2023-10-23T21:26:07.928Z,12.47
2023-10-23T21:28:34.755Z,12.51
2023-10-23T21:33:34.277Z,12.46
2023-10-23T21:36:00.994Z,12.37
2023-10-23T21:38:28.196Z,12.44
2023-10-23T21:40:55.053Z,12.44
2023-10-23T21:43:21.814Z,12.43
2023-10-23T21:45:55.929Z,12.44
2023-10-23T21:48:28.901Z,12.46
2023-10-23T21:50:55.815Z,12.49
2023-10-23T21:53:22.819Z,12.59
2023-10-23T21:55:49.862Z,12.60
2023-10-23T21:58:16.780Z,12.62
2023-10-23T22:00:44.387Z,12.60
2023-10-23T22:03:11.254Z,12.54
2023-10-23T22:05:38.308Z,12.54
2023-10-23T22:08:05.348Z,12.53
2023-10-23T22:10:32.378Z,12.49
2023-10-23T22:13:00.017Z,12.62
2023-10-23T22:15:26.788Z,12.56
2023-10-23T22:17:56.372Z,12.49
2023-10-23T22:25:25.703Z,12.52
2023-10-23T22:27:52.606Z,12.62
2023-10-23T22:30:19.330Z,12.58
2023-10-23T22:32:51.767Z,12.67
2023-10-23T22:35:24.081Z,12.56
2023-10-23T22:38:05.902Z,12.56
2023-10-23T22:40:37.474Z,12.47
2023-10-23T22:43:04.315Z,12.34
2023-10-23T22:45:31.120Z,12.29
2023-10-23T22:47:57.893Z,12.20
2023-10-23T22:50:25.210Z,12.15
2023-10-23T22:52:52.199Z,12.17
2023-10-23T22:55:19.273Z,12.16
2023-10-23T22:57:46.768Z,12.18
2023-10-23T23:00:15.507Z,12.21
2023-10-23T23:02:42.506Z,12.19
2023-10-23T23:05:09.775Z,12.23
2023-10-23T23:07:41.182Z,12.23
2023-10-23T23:10:10.861Z,12.19
2023-10-23T23:12:37.902Z,12.23
2023-10-23T23:20:22.212Z,12.25
2023-10-23T23:22:49.184Z,12.28
2023-10-23T23:25:16.062Z,12.31
2023-10-23T23:27:42.751Z,12.27
2023-10-23T23:30:10.796Z,12.31
2023-10-23T23:32:37.761Z,12.34
2023-10-23T23:35:04.936Z,12.33
2023-10-23T23:37:31.805Z,12.31
2023-10-23T23:39:58.579Z,12.30
2023-10-23T23:42:25.250Z,12.36
2023-10-23T23:44:52.317Z,12.37
2023-10-23T23:47:18.985Z,12.43
2023-10-23T23:49:47.026Z,12.35
2023-10-23T23:52:15.187Z,12.34
2023-10-23T23:54:42.472Z,12.36
2023-10-23T23:57:09.502Z,12.33
2023-10-23T23:59:36.292Z,12.33
